METAR Data
IDs: Format: Raw Decoded Include TAF

Data at: 0322 UTC 25 Jan 2020

PAKI 250256Z AUTO 34014KT 10SM CLR M24/M27 A3010 RMK AO2 SLP197 T12441267 53003 FZRANO
PAKI 250156Z AUTO 34015KT 10SM CLR M23/M26 A3010 RMK AO2 SLP196 T12331261 FZRANO
PAKI 250056Z AUTO 36015KT 10SM CLR M23/M26 A3009 RMK AO2 SLP193 T12281256 FZRANO
PAKI 242356Z AUTO 36013KT 10SM CLR M23/M26 A3009 RMK AO2 SLP194 T12281256 11228 21239 51012 FZRANO
PAKI 242256Z AUTO 01017KT 4SM BR CLR M23/M25 A3009 RMK AO2 SLP194 T12281250 FZRANO
PAKI 242203Z AUTO 03019KT 2SM BR CLR M23/M26 A3008 RMK AO2 FZRANO
PAKI 242156Z AUTO 02020KT 1 3/4SM BR CLR M23/M26 A3007 RMK AO2 PK WND 02030/2100 SLP187 T12331256 FZRANO
PAKI 242136Z AUTO 02022KT 1 1/4SM BR CLR M24/M26 A3007 RMK AO2 PK WND 02030/2100 FZRANO
PAKI 242114Z AUTO 03025KT 3/4SM BR CLR M24/M26 A3006 RMK AO2 PK WND 02030/2100 FZRANO
PAKI 242056Z AUTO 02026KT 1/2SM FZFG CLR M23/M26 A3006 RMK AO2 PK WND 02030/2053 SLP183 T12331256 58015 FZRANO
PAKI 242046Z AUTO 02025KT 1/2SM FZFG CLR M23/M26 A3006 RMK AO2 PK WND 02030/2036 FZRANO
PAKI 242032Z AUTO 02026KT 3/4SM BR CLR M24/M26 A3007 RMK AO2 PK WND 02028/2032 FZRANO
PAKI 242023Z AUTO 02023KT 1SM BR CLR M24/M26 A3008 RMK AO2 PK WND 02026/2022 FZRANO
PAKI 241956Z AUTO 02019KT 1 1/2SM BR CLR M24/M26 A3009 RMK AO2 SLP194 T12391261 FZRANO
PAKI 241945Z AUTO 01020KT 1 3/4SM BR CLR M24/M26 A3009 RMK AO2 FZRANO
PAKI 241856Z AUTO 36020KT 5SM BR CLR M24/M26 A3011 RMK AO2 PK WND 01026/1831 SLP198 T12391261 FZRANO
PAKI 241842Z AUTO 01022KT 3SM BR CLR M24/M26 A3010 RMK AO2 PK WND 01026/1831 FZRANO
PAKI 241829Z AUTO 01022KT 2 1/2SM BR CLR M23/M26 A3010 RMK AO2 PK WND 01026/1829 VIS 2V2 1/2 FZRANO
PAKI 241756Z AUTO 36021KT 3SM BR CLR M24/M26 A3010 RMK AO2 SNE06 SLP198 P0000 60000 T12391261 11206 21239 56012 FZRANO
PAKI 241732Z AUTO 36020KT 3SM BR CLR M24/M26 A3011 RMK AO2 SNE06 P0000 FZRANO
PAKI 241718Z AUTO 36020KT 2SM BR CLR M23/M26 A3011 RMK AO2 SNE06 P0000 FZRANO
PAKI 241656Z AUTO 36021KT 1 1/2SM -SN BR CLR M23/M26 A3011 RMK AO2 SNB46 SLP198 P0000 T12331256 FZRANO
PAKI 241643Z AUTO 36020KT 1 3/4SM BR CLR M23/M25 A3011 RMK AO2 FZRANO
PAKI 241556Z AUTO 35014KT 5SM BR CLR M23/M25 A3012 RMK AO2 SLP204 T12281250 FZRANO
PAKI 241456Z AUTO 35014KT 10SM CLR M23/M25 A3014 RMK AO2 SNE03 SLP209 P0000 60000 T12281250 58007 FZRANO
PAKI 241356Z AUTO 35015KT 9SM -SN CLR M21/M23 A3014 RMK AO2 SLP211 P0000 T12111228 FZRANO
PAKI 241256Z AUTO 34014KT 6SM -SN BR CLR M21/M23 A3017 RMK AO2 SLP219 P0000 T12111228 FZRANO
PAKI 241156Z AUTO 34013KT 4SM -SN BR CLR M21/M23 A3016 RMK AO2 SLP217 P0000 60000 T12061228 11156 21206 53001 FZRANO
PAKI 241056Z AUTO 35013KT 4SM -SN BR CLR M20/M22 A3015 RMK AO2 SLP214 P0000 T12001217 FZRANO
PAKI 240956Z AUTO 35012KT 7SM -SN CLR M19/M22 A3016 RMK AO2 SLP216 P0000 T11941217 FZRANO
PAKI 240856Z AUTO 36014KT 4SM -SN BR CLR M19/M21 A3016 RMK AO2 SLP216 P0000 60000 T11941211 411331222 53005 FZRANO
PAKI 240756Z AUTO 36012KT 6SM -SN BR CLR M18/M19 A3015 RMK AO2 SNB23 SLP215 P0000 T11781194 FZRANO
PAKI 240725Z AUTO 01015KT 8SM -SN SCT008 M17/M18 A3014 RMK AO2 SNB23 P0000 FZRANO
PAKI 240656Z AUTO 02017KT 10SM BKN010 M16/M18 A3013 RMK AO2 SNE30 CIG 009V013 SLP208 P0000 T11611178 FZRANO
PAKI 240607Z AUTO 01014KT 3SM -SN BR SCT003 OVC014 M16/M17 A3014 RMK AO2 P0000 FZRANO
PAKI 240601Z AUTO 01012KT 2SM -SN BR BKN003 OVC009 M16/M17 A3014 RMK AO2 VIS 1 1/4V5 P0000 FZRANO
PAKI 240556Z AUTO 01014KT 1 3/4SM -SN BR SCT003 OVC009 M16/M17 A3014 RMK AO2 VIS 1 1/4V3 SLP210 P0000 60000 T11561172 11144 21206 58009 FZRANO
PAKI 240514Z AUTO 36010KT 3SM -SN BR BKN009 M20/M22 A3015 RMK AO2 CIG 007V011 P0000 FZRANO
PAKI 240456Z AUTO 35011KT 4SM -SN BR CLR M20/M22 A3015 RMK AO2 SNB27 SLP213 P0000 T12001222 FZRANO
PAKI 240356Z AUTO 36010KT 10SM CLR M20/M22 A3016 RMK AO2 SNE04 SLP218 P0000 T12001222 FZRANO
PAKI 240256Z AUTO 36010KT 9SM -SN CLR M19/M21 A3017 RMK AO2 SNB33 SLP219 P0000 60000 T11891206 51006 FZRANO
PAKI 240240Z AUTO 35009KT 8SM -SN SCT019 M18/M19 A3017 RMK AO2 SNB33 P0000 FZRANO
PAKI 240156Z AUTO 35014KT 9SM OVC017 M16/M17 A3017 RMK AO2 SNE56 SLP220 P0000 T11561172 FZRANO
PAKI 240056Z AUTO 34010KT 9SM -SN OVC015 M15/M17 A3016 RMK AO2 SNB27 SLP217 P0000 T11501167 FZRANO
PAKI 232356Z AUTO 35010KT 10SM OVC015 M15/M17 A3015 RMK AO2 SNE10 SLP214 P0000 60000 T11501167 11150 21222 51002 FZRANO
PAKI 232346Z AUTO 36010KT 10SM OVC015 M16/M17 A3015 RMK AO2 SNE10 P0000 FZRANO
PAKI 232256Z AUTO 01012KT 9SM -SN OVC013 M17/M18 A3015 RMK AO2 SNB51 SLP212 P0000 T11671183 FZRANO
PAKI 232156Z AUTO 34009KT 10SM OVC017 M19/M21 A3017 RMK AO2 SLP218 T11941211 FZRANO
PAKI 232105Z AUTO 35006KT 10SM BKN021 M22/M24 A3015 RMK AO2 FZRANO
PAKI 232056Z AUTO 35007KT 10SM SCT021 M22/M24 A3014 RMK AO2 SLP211 T12171239 51016 FZRANO
PAKI 231956Z AUTO 35010KT 10SM CLR M20/M22 A3013 RMK AO2 SLP207 T12001217 FZRANO
PAKI 231916Z AUTO 35009KT 10SM SCT018 M19/M21 A3013 RMK AO2 FZRANO
PAKI 231856Z AUTO 35009KT 10SM BKN018 M19/M21 A3012 RMK AO2 SLP201 T11891206 FZRANO
PAKI 231848Z AUTO 36010KT 10SM BKN018 M19/M21 A3011 RMK AO2 FZRANO
PAKI 231835Z AUTO 36010KT 10SM FEW018 SCT024 M19/M21 A3011 RMK AO2 FZRANO
PAKI 231756Z AUTO 36006KT 10SM OVC024 M18/M19 A3010 RMK AO2 SLP195 60000 T11781194 11133 21178 51005 FZRANO
PAKI 231747Z AUTO 35007KT 10SM BKN024 M18/M19 A3009 RMK AO2 FZRANO
PAKI 231656Z AUTO 36007KT 10SM SCT042 M16/M18 A3009 RMK AO2 SNE1558 SLP193 P0000 T11611178 FZRANO
PAKI 231556Z AUTO 36008KT 9SM -SN OVC046 M14/M16 A3009 RMK AO2 SLP192 P0000 T11391156 FZRANO